sensor_id;sensor_type;location;lat;lon;timestamp;temperature;humidity
69281;SHT31;56392;51.082;17.080;2022-09-21T00:01:08;8.73;88.36
69281;SHT31;56392;51.082;17.080;2022-09-21T00:06:16;8.73;88.34
69281;SHT31;56392;51.082;17.080;2022-09-21T00:11:20;8.71;88.08
69281;SHT31;56392;51.082;17.080;2022-09-21T00:16:25;8.73;88.19
69281;SHT31;56392;51.082;17.080;2022-09-21T00:21:30;8.64;88.27
69281;SHT31;56392;51.082;17.080;2022-09-21T00:26:32;8.61;88.36
69281;SHT31;56392;51.082;17.080;2022-09-21T00:31:35;8.59;88.38
69281;SHT31;56392;51.082;17.080;2022-09-21T00:36:40;8.59;88.58
69281;SHT31;56392;51.082;17.080;2022-09-21T00:41:42;8.61;88.63
69281;SHT31;56392;51.082;17.080;2022-09-21T00:46:46;8.59;88.37
69281;SHT31;56392;51.082;17.080;2022-09-21T00:51:52;8.61;88.71
69281;SHT31;56392;51.082;17.080;2022-09-21T00:56:56;8.54;89.07
69281;SHT31;56392;51.082;17.080;2022-09-21T01:02:04;8.49;89.26
69281;SHT31;56392;51.082;17.080;2022-09-21T01:07:10;8.49;89.18
69281;SHT31;56392;51.082;17.080;2022-09-21T01:12:24;8.46;89.33
69281;SHT31;56392;51.082;17.080;2022-09-21T01:17:35;8.52;89.10
69281;SHT31;56392;51.082;17.080;2022-09-21T01:22:54;8.45;89.17
69281;SHT31;56392;51.082;17.080;2022-09-21T01:28:17;8.49;89.20
69281;SHT31;56392;51.082;17.080;2022-09-21T01:33:26;8.48;89.08
69281;SHT31;56392;51.082;17.080;2022-09-21T01:38:36;8.44;89.39
69281;SHT31;56392;51.082;17.080;2022-09-21T01:43:41;8.45;89.26
69281;SHT31;56392;51.082;17.080;2022-09-21T01:48:48;8.45;89.04
69281;SHT31;56392;51.082;17.080;2022-09-21T01:53:54;8.40;89.25
69281;SHT31;56392;51.082;17.080;2022-09-21T01:59:04;8.38;89.45
69281;SHT31;56392;51.082;17.080;2022-09-21T02:04:11;8.38;89.43
69281;SHT31;56392;51.082;17.080;2022-09-21T02:09:14;8.41;89.30
69281;SHT31;56392;51.082;17.080;2022-09-21T02:14:20;8.44;89.35
69281;SHT31;56392;51.082;17.080;2022-09-21T02:19:30;8.38;89.46
69281;SHT31;56392;51.082;17.080;2022-09-21T02:24:40;8.34;89.33
69281;SHT31;56392;51.082;17.080;2022-09-21T02:29:47;8.45;89.37
69281;SHT31;56392;51.082;17.080;2022-09-21T02:34:58;8.54;89.30
69281;SHT31;56392;51.082;17.080;2022-09-21T02:40:09;8.56;89.12
69281;SHT31;56392;51.082;17.080;2022-09-21T02:45:17;8.54;89.30
69281;SHT31;56392;51.082;17.080;2022-09-21T02:50:25;8.64;89.36
69281;SHT31;56392;51.082;17.080;2022-09-21T02:55:28;8.82;89.13
69281;SHT31;56392;51.082;17.080;2022-09-21T03:00:33;8.90;89.06
69281;SHT31;56392;51.082;17.080;2022-09-21T03:05:38;9.00;88.68
69281;SHT31;56392;51.082;17.080;2022-09-21T03:10:41;9.06;88.31
69281;SHT31;56392;51.082;17.080;2022-09-21T03:15:44;9.10;88.04
69281;SHT31;56392;51.082;17.080;2022-09-21T03:20:48;9.10;88.04
69281;SHT31;56392;51.082;17.080;2022-09-21T03:25:51;9.10;88.23
69281;SHT31;56392;51.082;17.080;2022-09-21T03:30:55;9.10;88.23
69281;SHT31;56392;51.082;17.080;2022-09-21T03:35:59;9.14;88.15
69281;SHT31;56392;51.082;17.080;2022-09-21T03:41:02;9.14;88.24
69281;SHT31;56392;51.082;17.080;2022-09-21T03:46:05;9.24;87.96
69281;SHT31;56392;51.082;17.080;2022-09-21T03:51:09;9.27;87.79
69281;SHT31;56392;51.082;17.080;2022-09-21T03:56:11;9.23;88.11
69281;SHT31;56392;51.082;17.080;2022-09-21T04:01:14;9.23;88.12
69281;SHT31;56392;51.082;17.080;2022-09-21T04:06:18;9.24;88.09
69281;SHT31;56392;51.082;17.080;2022-09-21T04:11:21;9.24;88.21
69281;SHT31;56392;51.082;17.080;2022-09-21T04:16:25;9.17;88.30
69281;SHT31;56392;51.082;17.080;2022-09-21T04:21:29;9.20;88.36
69281;SHT31;56392;51.082;17.080;2022-09-21T04:26:34;9.19;88.42
69281;SHT31;56392;51.082;17.080;2022-09-21T04:31:37;9.22;88.57
69281;SHT31;56392;51.082;17.080;2022-09-21T04:36:41;9.28;88.70
69281;SHT31;56392;51.082;17.080;2022-09-21T04:41:43;9.33;88.53
69281;SHT31;56392;51.082;17.080;2022-09-21T04:46:46;9.31;88.62
69281;SHT31;56392;51.082;17.080;2022-09-21T04:51:50;9.41;88.19
69281;SHT31;56392;51.082;17.080;2022-09-21T04:56:52;9.37;88.38
69281;SHT31;56392;51.082;17.080;2022-09-21T05:01:55;9.43;88.14
69281;SHT31;56392;51.082;17.080;2022-09-21T05:06:59;9.52;87.95
69281;SHT31;56392;51.082;17.080;2022-09-21T05:12:02;9.57;87.78
69281;SHT31;56392;51.082;17.080;2022-09-21T05:17:05;9.57;87.84
69281;SHT31;56392;51.082;17.080;2022-09-21T05:22:09;9.58;87.67
69281;SHT31;56392;51.082;17.080;2022-09-21T05:27:11;9.57;87.57
69281;SHT31;56392;51.082;17.080;2022-09-21T05:32:18;9.62;87.59
69281;SHT31;56392;51.082;17.080;2022-09-21T05:37:42;9.65;87.30
69281;SHT31;56392;51.082;17.080;2022-09-21T05:42:46;9.70;87.44
69281;SHT31;56392;51.082;17.080;2022-09-21T05:48:05;9.73;87.62
69281;SHT31;56392;51.082;17.080;2022-09-21T05:53:25;9.73;88.29
69281;SHT31;56392;51.082;17.080;2022-09-21T05:58:35;9.82;88.04
69281;SHT31;56392;51.082;17.080;2022-09-21T06:03:42;9.88;87.83
69281;SHT31;56392;51.082;17.080;2022-09-21T06:08:46;9.94;87.76
69281;SHT31;56392;51.082;17.080;2022-09-21T06:13:49;9.94;88.09
69281;SHT31;56392;51.082;17.080;2022-09-21T06:18:51;10.02;87.76
69281;SHT31;56392;51.082;17.080;2022-09-21T06:23:56;10.16;87.26
69281;SHT31;56392;51.082;17.080;2022-09-21T06:28:58;10.17;87.65
69281;SHT31;56392;51.082;17.080;2022-09-21T06:34:01;10.22;87.40
69281;SHT31;56392;51.082;17.080;2022-09-21T06:39:05;10.33;87.29
69281;SHT31;56392;51.082;17.080;2022-09-21T06:44:08;10.42;87.16
69281;SHT31;56392;51.082;17.080;2022-09-21T06:49:10;10.52;86.96
69281;SHT31;56392;51.082;17.080;2022-09-21T06:54:14;10.49;87.40
69281;SHT31;56392;51.082;17.080;2022-09-21T06:59:17;10.61;87.69
69281;SHT31;56392;51.082;17.080;2022-09-21T07:04:21;10.96;87.38
69281;SHT31;56392;51.082;17.080;2022-09-21T07:09:26;11.35;86.51
69281;SHT31;56392;51.082;17.080;2022-09-21T07:14:29;11.87;86.17
69281;SHT31;56392;51.082;17.080;2022-09-21T07:19:31;12.82;83.64
69281;SHT31;56392;51.082;17.080;2022-09-21T07:24:35;13.35;82.65
69281;SHT31;56392;51.082;17.080;2022-09-21T07:29:38;12.93;82.42
69281;SHT31;56392;51.082;17.080;2022-09-21T07:34:40;13.32;81.03
69281;SHT31;56392;51.082;17.080;2022-09-21T07:39:44;13.19;80.35
69281;SHT31;56392;51.082;17.080;2022-09-21T07:44:46;13.00;80.99
69281;SHT31;56392;51.082;17.080;2022-09-21T07:49:49;13.10;80.23
69281;SHT31;56392;51.082;17.080;2022-09-21T07:54:53;14.01;78.41
69281;SHT31;56392;51.082;17.080;2022-09-21T07:59:56;13.49;80.26
69281;SHT31;56392;51.082;17.080;2022-09-21T08:04:59;13.35;79.79
69281;SHT31;56392;51.082;17.080;2022-09-21T08:10:03;13.13;80.84
69281;SHT31;56392;51.082;17.080;2022-09-21T08:15:06;13.15;80.58
69281;SHT31;56392;51.082;17.080;2022-09-21T08:20:09;12.96;81.01
69281;SHT31;56392;51.082;17.080;2022-09-21T08:25:13;12.64;82.67
69281;SHT31;56392;51.082;17.080;2022-09-21T08:30:16;12.61;82.44
69281;SHT31;56392;51.082;17.080;2022-09-21T08:35:19;12.64;82.74
69281;SHT31;56392;51.082;17.080;2022-09-21T08:40:23;13.02;81.86
69281;SHT31;56392;51.082;17.080;2022-09-21T08:45:32;13.15;81.06
69281;SHT31;56392;51.082;17.080;2022-09-21T08:50:39;13.12;80.69
69281;SHT31;56392;51.082;17.080;2022-09-21T08:55:45;13.36;80.52
69281;SHT31;56392;51.082;17.080;2022-09-21T09:00:51;13.47;80.89
69281;SHT31;56392;51.082;17.080;2022-09-21T09:06:00;13.69;79.96
69281;SHT31;56392;51.082;17.080;2022-09-21T09:11:15;13.81;79.48
69281;SHT31;56392;51.082;17.080;2022-09-21T09:16:27;13.82;79.23
69281;SHT31;56392;51.082;17.080;2022-09-21T09:21:35;14.84;76.94
69281;SHT31;56392;51.082;17.080;2022-09-21T09:26:43;15.61;75.43
69281;SHT31;56392;51.082;17.080;2022-09-21T09:31:48;15.28;75.65
69281;SHT31;56392;51.082;17.080;2022-09-21T09:36:57;17.28;70.66
69281;SHT31;56392;51.082;17.080;2022-09-21T09:42:31;17.83;67.54
69281;SHT31;56392;51.082;17.080;2022-09-21T09:47:47;16.95;69.45
69281;SHT31;56392;51.082;17.080;2022-09-21T09:52:55;16.71;69.79
69281;SHT31;56392;51.082;17.080;2022-09-21T09:58:03;18.40;65.51
69281;SHT31;56392;51.082;17.080;2022-09-21T10:03:15;18.17;67.36
69281;SHT31;56392;51.082;17.080;2022-09-21T10:08:39;18.47;66.02
69281;SHT31;56392;51.082;17.080;2022-09-21T10:13:46;18.61;65.33
69281;SHT31;56392;51.082;17.080;2022-09-21T10:18:50;18.73;62.91
69281;SHT31;56392;51.082;17.080;2022-09-21T10:23:58;18.98;63.09
69281;SHT31;56392;51.082;17.080;2022-09-21T10:29:18;19.27;60.92
69281;SHT31;56392;51.082;17.080;2022-09-21T10:34:23;19.09;61.42
69281;SHT31;56392;51.082;17.080;2022-09-21T10:39:28;18.75;62.55
69281;SHT31;56392;51.082;17.080;2022-09-21T10:44:38;18.15;63.45
69281;SHT31;56392;51.082;17.080;2022-09-21T10:49:43;17.40;64.95
69281;SHT31;56392;51.082;17.080;2022-09-21T10:54:49;17.29;66.63
69281;SHT31;56392;51.082;17.080;2022-09-21T10:59:54;17.47;66.00
69281;SHT31;56392;51.082;17.080;2022-09-21T11:05:01;17.31;65.68
69281;SHT31;56392;51.082;17.080;2022-09-21T11:10:12;17.59;65.15
69281;SHT31;56392;51.082;17.080;2022-09-21T11:15:28;17.47;63.58
69281;SHT31;56392;51.082;17.080;2022-09-21T11:20:39;17.18;65.37
69281;SHT31;56392;51.082;17.080;2022-09-21T11:25:47;17.31;65.02
69281;SHT31;56392;51.082;17.080;2022-09-21T11:31:09;17.45;65.63
69281;SHT31;56392;51.082;17.080;2022-09-21T11:36:23;17.77;63.97
69281;SHT31;56392;51.082;17.080;2022-09-21T11:41:53;17.63;63.02
69281;SHT31;56392;51.082;17.080;2022-09-21T11:47:10;17.40;63.04
69281;SHT31;56392;51.082;17.080;2022-09-21T11:52:27;17.73;61.96
69281;SHT31;56392;51.082;17.080;2022-09-21T11:57:38;17.65;61.45
69281;SHT31;56392;51.082;17.080;2022-09-21T12:08:43;17.21;62.51
69281;SHT31;56392;51.082;17.080;2022-09-21T12:13:55;17.31;62.71
69281;SHT31;56392;51.082;17.080;2022-09-21T12:19:07;17.18;62.40
69281;SHT31;56392;51.082;17.080;2022-09-21T12:24:14;16.92;63.60
69281;SHT31;56392;51.082;17.080;2022-09-21T12:29:23;16.56;65.16
69281;SHT31;56392;51.082;17.080;2022-09-21T12:34:32;16.41;66.49
69281;SHT31;56392;51.082;17.080;2022-09-21T12:39:40;16.39;65.85
69281;SHT31;56392;51.082;17.080;2022-09-21T12:44:47;16.41;67.29
69281;SHT31;56392;51.082;17.080;2022-09-21T12:50:00;16.54;66.18
69281;SHT31;56392;51.082;17.080;2022-09-21T12:55:14;16.43;66.81
69281;SHT31;56392;51.082;17.080;2022-09-21T13:00:23;16.44;64.36
69281;SHT31;56392;51.082;17.080;2022-09-21T13:05:35;16.32;63.38
69281;SHT31;56392;51.082;17.080;2022-09-21T13:10:43;16.17;65.17
69281;SHT31;56392;51.082;17.080;2022-09-21T13:15:47;16.10;64.83
69281;SHT31;56392;51.082;17.080;2022-09-21T13:20:53;16.05;64.72
69281;SHT31;56392;51.082;17.080;2022-09-21T13:26:02;15.96;65.28
69281;SHT31;56392;51.082;17.080;2022-09-21T13:36:42;15.82;64.03
69281;SHT31;56392;51.082;17.080;2022-09-21T13:41:45;15.81;65.28
69281;SHT31;56392;51.082;17.080;2022-09-21T13:46:55;15.88;65.88
69281;SHT31;56392;51.082;17.080;2022-09-21T13:52:05;16.08;65.38
69281;SHT31;56392;51.082;17.080;2022-09-21T13:57:17;16.27;65.60
69281;SHT31;56392;51.082;17.080;2022-09-21T14:02:28;16.39;64.30
69281;SHT31;56392;51.082;17.080;2022-09-21T14:07:34;16.22;67.42
69281;SHT31;56392;51.082;17.080;2022-09-21T14:12:41;16.02;69.39
69281;SHT31;56392;51.082;17.080;2022-09-21T14:18:07;16.05;70.89
69281;SHT31;56392;51.082;17.080;2022-09-21T14:23:27;15.93;69.52
69281;SHT31;56392;51.082;17.080;2022-09-21T14:28:34;16.14;69.21
69281;SHT31;56392;51.082;17.080;2022-09-21T14:33:44;16.30;67.30
69281;SHT31;56392;51.082;17.080;2022-09-21T14:38:51;16.33;67.48
69281;SHT31;56392;51.082;17.080;2022-09-21T14:43:55;16.22;66.96
69281;SHT31;56392;51.082;17.080;2022-09-21T14:49:10;16.10;65.44
69281;SHT31;56392;51.082;17.080;2022-09-21T14:54:30;15.79;65.88
69281;SHT31;56392;51.082;17.080;2022-09-21T14:59:53;15.73;66.67
69281;SHT31;56392;51.082;17.080;2022-09-21T15:05:17;15.78;66.70
69281;SHT31;56392;51.082;17.080;2022-09-21T15:10:25;15.75;66.10
69281;SHT31;56392;51.082;17.080;2022-09-21T15:15:59;15.52;65.94
69281;SHT31;56392;51.082;17.080;2022-09-21T15:21:19;15.45;66.35
69281;SHT31;56392;51.082;17.080;2022-09-21T15:26:27;15.12;67.22
69281;SHT31;56392;51.082;17.080;2022-09-21T15:31:32;15.03;67.42
69281;SHT31;56392;51.082;17.080;2022-09-21T15:36:37;14.81;68.51
69281;SHT31;56392;51.082;17.080;2022-09-21T15:41:43;14.69;70.46
69281;SHT31;56392;51.082;17.080;2022-09-21T15:46:47;14.50;71.57
69281;SHT31;56392;51.082;17.080;2022-09-21T15:51:54;14.38;71.53
69281;SHT31;56392;51.082;17.080;2022-09-21T15:57:02;14.32;71.49
69281;SHT31;56392;51.082;17.080;2022-09-21T16:02:10;14.45;70.48
69281;SHT31;56392;51.082;17.080;2022-09-21T16:07:25;14.35;69.45
69281;SHT31;56392;51.082;17.080;2022-09-21T16:12:40;14.19;70.67
69281;SHT31;56392;51.082;17.080;2022-09-21T16:17:54;14.01;70.89
69281;SHT31;56392;51.082;17.080;2022-09-21T16:23:03;13.91;71.50
69281;SHT31;56392;51.082;17.080;2022-09-21T16:28:27;13.75;70.87
69281;SHT31;56392;51.082;17.080;2022-09-21T16:33:36;13.71;69.84
69281;SHT31;56392;51.082;17.080;2022-09-21T16:38:41;13.56;70.49
69281;SHT31;56392;51.082;17.080;2022-09-21T16:43:45;13.44;71.38
69281;SHT31;56392;51.082;17.080;2022-09-21T16:48:47;13.33;71.53
69281;SHT31;56392;51.082;17.080;2022-09-21T16:53:50;13.30;71.94
69281;SHT31;56392;51.082;17.080;2022-09-21T16:58:54;13.23;71.80
69281;SHT31;56392;51.082;17.080;2022-09-21T17:03:57;13.29;71.06
69281;SHT31;56392;51.082;17.080;2022-09-21T17:09:00;13.26;73.19
69281;SHT31;56392;51.082;17.080;2022-09-21T17:14:05;13.22;71.89
69281;SHT31;56392;51.082;17.080;2022-09-21T17:19:08;13.35;71.86
69281;SHT31;56392;51.082;17.080;2022-09-21T17:24:11;13.29;73.28
69281;SHT31;56392;51.082;17.080;2022-09-21T17:29:20;13.22;73.85
69281;SHT31;56392;51.082;17.080;2022-09-21T17:34:25;13.19;73.90
69281;SHT31;56392;51.082;17.080;2022-09-21T17:39:28;13.10;75.95
69281;SHT31;56392;51.082;17.080;2022-09-21T17:44:43;12.95;77.20
69281;SHT31;56392;51.082;17.080;2022-09-21T17:49:48;12.78;77.55
69281;SHT31;56392;51.082;17.080;2022-09-21T17:54:51;12.64;78.73
69281;SHT31;56392;51.082;17.080;2022-09-21T18:00:00;12.54;79.36
69281;SHT31;56392;51.082;17.080;2022-09-21T18:05:14;12.44;79.74
69281;SHT31;56392;51.082;17.080;2022-09-21T18:10:21;12.34;80.20
69281;SHT31;56392;51.082;17.080;2022-09-21T18:15:33;12.30;80.64
69281;SHT31;56392;51.082;17.080;2022-09-21T18:20:51;12.21;81.04
69281;SHT31;56392;51.082;17.080;2022-09-21T18:25:57;12.10;81.62
69281;SHT31;56392;51.082;17.080;2022-09-21T18:31:26;12.06;81.51
69281;SHT31;56392;51.082;17.080;2022-09-21T18:36:35;12.01;81.36
69281;SHT31;56392;51.082;17.080;2022-09-21T18:41:47;11.97;82.20
69281;SHT31;56392;51.082;17.080;2022-09-21T18:47:01;11.93;82.56
69281;SHT31;56392;51.082;17.080;2022-09-21T18:52:13;11.91;81.84
69281;SHT31;56392;51.082;17.080;2022-09-21T18:57:19;11.94;81.75
69281;SHT31;56392;51.082;17.080;2022-09-21T19:02:25;12.00;81.34
69281;SHT31;56392;51.082;17.080;2022-09-21T19:07:37;12.01;81.65
69281;SHT31;56392;51.082;17.080;2022-09-21T19:12:51;12.07;81.00
69281;SHT31;56392;51.082;17.080;2022-09-21T19:18:14;12.10;81.38
69281;SHT31;56392;51.082;17.080;2022-09-21T19:23:27;12.13;81.23
69281;SHT31;56392;51.082;17.080;2022-09-21T19:34:09;12.17;81.14
69281;SHT31;56392;51.082;17.080;2022-09-21T19:39:13;12.18;81.16
69281;SHT31;56392;51.082;17.080;2022-09-21T19:44:28;12.18;81.22
69281;SHT31;56392;51.082;17.080;2022-09-21T19:49:43;12.18;81.29
69281;SHT31;56392;51.082;17.080;2022-09-21T19:54:48;12.20;81.34
69281;SHT31;56392;51.082;17.080;2022-09-21T20:00:10;12.17;81.48
69281;SHT31;56392;51.082;17.080;2022-09-21T20:05:18;12.13;81.47
69281;SHT31;56392;51.082;17.080;2022-09-21T20:10:36;12.13;81.93
69281;SHT31;56392;51.082;17.080;2022-09-21T20:15:47;12.12;81.55
69281;SHT31;56392;51.082;17.080;2022-09-21T20:20:52;12.07;81.78
69281;SHT31;56392;51.082;17.080;2022-09-21T20:25:58;12.06;81.76
69281;SHT31;56392;51.082;17.080;2022-09-21T20:31:03;12.06;82.03
69281;SHT31;56392;51.082;17.080;2022-09-21T20:36:08;12.03;82.26
69281;SHT31;56392;51.082;17.080;2022-09-21T20:41:12;12.09;82.00
69281;SHT31;56392;51.082;17.080;2022-09-21T20:46:15;12.10;81.94
69281;SHT31;56392;51.082;17.080;2022-09-21T20:51:19;12.14;81.39
69281;SHT31;56392;51.082;17.080;2022-09-21T20:56:22;12.17;81.86
69281;SHT31;56392;51.082;17.080;2022-09-21T21:01:25;12.21;81.92
69281;SHT31;56392;51.082;17.080;2022-09-21T21:06:29;12.17;81.26
69281;SHT31;56392;51.082;17.080;2022-09-21T21:11:32;12.14;81.58
69281;SHT31;56392;51.082;17.080;2022-09-21T21:16:35;12.10;81.77
69281;SHT31;56392;51.082;17.080;2022-09-21T21:21:39;12.09;81.48
69281;SHT31;56392;51.082;17.080;2022-09-21T21:26:42;12.06;81.76
69281;SHT31;56392;51.082;17.080;2022-09-21T21:31:45;12.00;82.08
69281;SHT31;56392;51.082;17.080;2022-09-21T21:36:49;11.90;81.73
69281;SHT31;56392;51.082;17.080;2022-09-21T21:41:51;11.86;81.80
69281;SHT31;56392;51.082;17.080;2022-09-21T21:46:54;11.85;81.93
69281;SHT31;56392;51.082;17.080;2022-09-21T21:51:59;11.77;81.98
69281;SHT31;56392;51.082;17.080;2022-09-21T21:57:02;11.69;82.11
69281;SHT31;56392;51.082;17.080;2022-09-21T22:02:05;11.58;82.76
69281;SHT31;56392;51.082;17.080;2022-09-21T22:07:09;11.54;82.78
69281;SHT31;56392;51.082;17.080;2022-09-21T22:12:11;11.48;82.78
69281;SHT31;56392;51.082;17.080;2022-09-21T22:17:14;11.42;83.03
69281;SHT31;56392;51.082;17.080;2022-09-21T22:22:18;11.40;83.51
69281;SHT31;56392;51.082;17.080;2022-09-21T22:27:21;11.34;83.51
69281;SHT31;56392;51.082;17.080;2022-09-21T22:32:23;11.24;83.65
69281;SHT31;56392;51.082;17.080;2022-09-21T22:37:27;11.22;83.71
69281;SHT31;56392;51.082;17.080;2022-09-21T22:42:30;11.18;84.10
69281;SHT31;56392;51.082;17.080;2022-09-21T22:47:33;11.14;84.10
69281;SHT31;56392;51.082;17.080;2022-09-21T22:52:37;11.08;84.23
69281;SHT31;56392;51.082;17.080;2022-09-21T22:57:39;11.03;84.51
69281;SHT31;56392;51.082;17.080;2022-09-21T23:02:42;10.98;84.71
69281;SHT31;56392;51.082;17.080;2022-09-21T23:07:50;11.07;84.87
69281;SHT31;56392;51.082;17.080;2022-09-21T23:12:52;11.03;85.25
69281;SHT31;56392;51.082;17.080;2022-09-21T23:17:55;11.08;85.37
69281;SHT31;56392;51.082;17.080;2022-09-21T23:22:59;11.14;85.32
69281;SHT31;56392;51.082;17.080;2022-09-21T23:28:01;11.15;85.41
69281;SHT31;56392;51.082;17.080;2022-09-21T23:33:04;11.15;85.38
69281;SHT31;56392;51.082;17.080;2022-09-21T23:38:08;11.10;85.55
69281;SHT31;56392;51.082;17.080;2022-09-21T23:43:11;11.04;85.43
69281;SHT31;56392;51.082;17.080;2022-09-21T23:48:13;10.93;85.10
69281;SHT31;56392;51.082;17.080;2022-09-21T23:53:18;10.78;85.40
69281;SHT31;56392;51.082;17.080;2022-09-21T23:58:21;10.71;85.64
